Time;durP1;ratioP1;P1;durP2;ratioP2;P2;SDS_P1;SDS_P2;PMS_P1;PMS_P2;Temp;Humidity;BMP_temperature;BMP_pressure;BME280_temperature;BME280_humidity;BME280_pressure;Samples;Min_cycle;Max_cycle;Signal;HPM_P1;HPM_P2
2023/01/19 00:01:28;;;;;;;15.63;12.38;;;;;;;16.10;44.85;91891.84;4931209;29;20082;-89
2023/01/19 00:03:55;;;;;;;16.83;12.75;;;;;;;16.10;44.86;91893.84;4948571;28;20039;-89
2023/01/19 00:06:21;;;;;;;14.68;11.95;;;;;;;16.10;44.87;91893.84;4932389;28;20075;-89
2023/01/19 00:08:49;;;;;;;18.20;13.23;;;;;;;16.09;45.44;91881.47;4956788;28;20046;-90
2023/01/19 00:11:16;;;;;;;17.40;11.90;;;;;;;16.10;45.19;91891.13;4948788;28;20069;-88
2023/01/19 00:13:48;;;;;;;15.45;11.38;;;;;;;16.09;44.84;91887.66;4968178;28;20046;-89
2023/01/19 00:16:16;;;;;;;17.23;11.85;;;;;;;16.10;45.37;91891.84;4954500;28;20054;-89
2023/01/19 00:18:42;;;;;;;15.77;11.73;;;;;;;16.14;44.93;91893.50;4952781;28;20051;-89
2023/01/19 00:21:08;;;;;;;15.77;11.82;;;;;;;16.14;44.68;91907.13;4949614;28;20039;-90
2023/01/19 00:23:33;;;;;;;14.23;10.75;;;;;;;16.11;44.99;91917.09;4953132;28;20422;-90
2023/01/19 00:26:00;;;;;;;13.98;10.00;;;;;;;16.09;44.83;91920.38;4938292;28;20268;-89
2023/01/19 00:28:26;;;;;;;13.02;10.48;;;;;;;16.14;45.18;91913.31;4953209;28;20461;-90
2023/01/19 00:30:52;;;;;;;13.85;10.63;;;;;;;16.09;45.40;91922.34;4988280;28;20097;-91
2023/01/19 00:33:17;;;;;;;15.15;11.13;;;;;;;16.12;44.97;91921.28;4956898;28;20030;-87
2023/01/19 00:35:51;;;;;;;15.57;11.60;;;;;;;16.11;45.19;91922.56;4953310;28;20035;-88
2023/01/19 00:38:17;;;;;;;14.48;10.57;;;;;;;16.08;45.42;91924.34;4953891;28;20069;-89
2023/01/19 00:40:42;;;;;;;17.00;12.25;;;;;;;16.10;45.17;91923.81;4953413;28;20039;-89
2023/01/19 00:43:08;;;;;;;13.82;10.35;;;;;;;16.10;45.00;91923.81;4968319;28;20043;-89
2023/01/19 00:45:33;;;;;;;12.50;10.48;;;;;;;16.10;45.11;91929.28;4968942;28;20031;-88
2023/01/19 00:47:59;;;;;;;12.48;9.82;;;;;;;16.13;44.84;91925.50;4951796;28;20406;-89
2023/01/19 00:50:25;;;;;;;14.77;10.20;;;;;;;16.10;45.17;91918.38;4967776;28;20042;-88
2023/01/19 00:52:52;;;;;;;13.93;9.70;;;;;;;16.12;45.27;91926.75;4954113;28;20046;-89
2023/01/19 00:55:18;;;;;;;15.85;11.57;;;;;;;16.15;45.09;91928.41;4932291;28;20219;-91
2023/01/19 00:57:44;;;;;;;13.27;9.32;;;;;;;16.14;44.97;91937.84;4950310;28;20042;-89
2023/01/19 01:00:14;;;;;;;15.93;11.15;;;;;;;16.11;44.97;91944.38;4984040;28;20065;-89
2023/01/19 01:02:45;;;;;;;13.98;10.55;;;;;;;16.11;44.86;91955.28;4964057;28;20047;-89
2023/01/19 01:05:13;;;;;;;15.70;11.25;;;;;;;16.14;44.85;91964.38;4952156;28;20449;-89
2023/01/19 01:07:48;;;;;;;21.58;14.02;;;;;;;16.17;45.22;91944.25;4965901;28;20047;-89
2023/01/19 01:10:21;;;;;;;13.88;10.10;;;;;;;16.15;45.19;91944.03;4947509;28;20099;-88
2023/01/19 01:12:47;;;;;;;14.27;10.68;;;;;;;16.13;44.92;91946.56;4946395;28;20525;-89
2023/01/19 01:15:12;;;;;;;14.77;9.85;;;;;;;16.14;45.21;91939.84;4972360;28;20186;-89
2023/01/19 01:17:45;;;;;;;13.40;9.43;;;;;;;16.15;44.80;91942.06;4977801;28;20537;-89
2023/01/19 01:20:17;;;;;;;14.18;10.02;;;;;;;16.09;44.86;91944.91;4977252;28;20054;-90
2023/01/19 01:22:49;;;;;;;13.27;9.98;;;;;;;16.07;44.81;91944.69;4962383;28;20465;-89
2023/01/19 01:25:15;;;;;;;12.43;9.30;;;;;;;16.06;45.16;91945.94;4945050;28;20039;-89
2023/01/19 01:27:41;;;;;;;15.45;10.32;;;;;;;16.07;45.16;91943.97;4947282;28;20079;-90
2023/01/19 01:30:09;;;;;;;23.70;16.75;;;;;;;16.08;45.36;91946.16;4950868;28;20098;-89
2023/01/19 01:32:34;;;;;;;12.95;9.52;;;;;;;16.05;45.30;91941.75;4950606;28;20038;-88
2023/01/19 01:35:00;;;;;;;18.33;12.63;;;;;;;16.13;45.97;91944.56;4987352;28;20045;-89
2023/01/19 01:37:25;;;;;;;12.23;9.52;;;;;;;16.08;45.25;91942.69;4954960;28;20043;-89
2023/01/19 01:39:52;;;;;;;14.30;9.63;;;;;;;16.13;45.13;91943.84;4982254;28;20035;-90
2023/01/19 01:42:18;;;;;;;11.20;8.65;;;;;;;16.08;45.06;91946.16;4964616;28;20042;-89
2023/01/19 01:44:54;;;;;;;11.85;9.13;;;;;;;16.09;44.86;91944.16;4958571;28;20035;-88
2023/01/19 01:47:41;;;;;;;13.90;10.20;;;;;;;16.08;44.92;91950.88;4982370;28;20035;-88
2023/01/19 01:50:21;;;;;;;14.35;9.75;;;;;;;16.09;45.00;91946.88;4951458;28;20031;-89
2023/01/19 01:52:54;;;;;;;11.30;9.18;;;;;;;16.10;45.21;91940.19;4958163;28;20027;-91
2023/01/19 01:55:21;;;;;;;11.43;9.25;;;;;;;16.09;45.17;91942.16;4970800;28;20043;-90
2023/01/19 01:57:49;;;;;;;12.65;9.85;;;;;;;16.10;45.11;91945.63;4957284;28;20039;-91
2023/01/19 02:00:17;;;;;;;14.52;10.05;;;;;;;16.08;44.89;91929.06;4987132;28;20035;-90
2023/01/19 02:02:53;;;;;;;13.32;8.82;;;;;;;16.03;45.28;91938.09;4971527;28;20170;-89
2023/01/19 02:05:29;;;;;;;14.13;9.85;;;;;;;16.10;45.24;91943.63;4971368;28;20031;-89
2023/01/19 02:13:36;;;;;;;13.60;9.05;;;;;;;16.02;44.97;91936.66;4974959;28;20124;-89
2023/01/19 02:16:05;;;;;;;13.60;9.25;;;;;;;16.04;45.10;91925.94;4969742;28;20092;-89
2023/01/19 02:18:30;;;;;;;11.88;8.70;;;;;;;16.06;45.10;91926.88;4952681;28;20046;-90
2023/01/19 02:21:31;;;;;;;10.48;8.13;;;;;;;16.07;45.29;91922.88;4957531;28;20097;-89
2023/01/19 02:23:59;;;;;;;11.43;8.35;;;;;;;16.10;44.83;91919.09;4976088;28;20078;-89
2023/01/19 02:26:40;;;;;;;12.43;8.70;;;;;;;16.08;44.95;91921.63;4966709;28;20049;-89
2023/01/19 02:29:10;;;;;;;10.63;8.15;;;;;;;16.09;44.93;91923.09;4954955;28;20061;-90
2023/01/19 02:31:36;;;;;;;10.95;9.07;;;;;;;16.07;44.94;91916.69;4953467;28;20065;-89
2023/01/19 02:34:01;;;;;;;12.55;9.07;;;;;;;16.07;44.98;91917.44;4959587;28;20440;-87
2023/01/19 02:36:34;;;;;;;14.18;10.27;;;;;;;16.08;45.32;91915.44;4952373;28;20038;-89
2023/01/19 02:39:00;;;;;;;9.63;8.05;;;;;;;16.04;45.24;91909.59;4954333;28;20062;-88
2023/01/19 02:41:28;;;;;;;13.43;9.32;;;;;;;16.02;44.96;91906.69;4968754;28;20045;-88
2023/01/19 02:43:55;;;;;;;10.10;8.18;;;;;;;16.05;44.87;91909.06;4981743;28;20072;-88
2023/01/19 02:46:22;;;;;;;12.60;9.60;;;;;;;16.07;45.08;91903.81;4968967;28;20548;-89
2023/01/19 02:48:48;;;;;;;12.60;8.38;;;;;;;16.05;45.07;91900.16;4953920;28;20069;-89
2023/01/19 02:51:22;;;;;;;11.07;8.60;;;;;;;16.02;45.19;91893.75;4953507;28;20030;-88
2023/01/19 02:54:12;;;;;;;16.95;12.55;;;;;;;16.14;45.18;91898.97;4953425;28;20094;-88
2023/01/19 02:56:50;;;;;;;13.57;9.13;;;;;;;16.07;44.65;91898.34;4969743;28;20042;-89
2023/01/19 02:59:22;;;;;;;11.65;8.57;;;;;;;16.03;44.89;91906.13;4986503;28;20065;-88
2023/01/19 03:01:59;;;;;;;11.77;8.18;;;;;;;16.02;45.05;91915.56;4981622;28;20042;-88
2023/01/19 03:04:30;;;;;;;10.48;8.55;;;;;;;16.03;45.13;91917.03;4981900;28;20503;-89
2023/01/19 03:07:17;;;;;;;11.48;8.75;;;;;;;16.03;45.04;91916.31;4983507;28;20080;-89
2023/01/19 03:09:51;;;;;;;11.93;8.38;;;;;;;16.02;45.47;91917.59;4985137;28;20110;-89
2023/01/19 03:12:30;;;;;;;11.57;9.20;;;;;;;16.03;45.24;91919.03;4952312;28;20497;-91
2023/01/19 03:14:59;;;;;;;13.10;9.43;;;;;;;16.03;44.84;91921.75;4954215;28;20042;-91
2023/01/19 03:17:25;;;;;;;9.45;7.80;;;;;;;16.01;45.49;91922.31;4951218;28;20038;-88
2023/01/19 03:19:50;;;;;;;10.13;7.50;;;;;;;16.02;45.03;91918.28;4944053;29;20582;-89
2023/01/19 03:22:20;;;;;;;9.98;7.45;;;;;;;16.03;45.23;91916.31;4944486;29;20061;-90
2023/01/19 03:24:45;;;;;;;9.70;7.55;;;;;;;16.02;45.44;91918.28;4919963;29;20043;-89
2023/01/19 03:27:15;;;;;;;12.93;9.30;;;;;;;16.06;45.42;91921.41;4956406;28;20054;-89
2023/01/19 03:29:51;;;;;;;14.90;11.25;;;;;;;16.05;45.54;91925.41;4931572;29;20118;-89
2023/01/19 03:32:17;;;;;;;9.90;7.35;;;;;;;16.04;45.11;91918.50;4916246;28;20106;-88
2023/01/19 03:34:43;;;;;;;10.73;7.82;;;;;;;16.03;45.18;91936.09;4947011;29;20047;-88
2023/01/19 03:37:10;;;;;;;15.25;10.27;;;;;;;16.07;45.21;91933.06;4935657;29;20147;-89
2023/01/19 03:39:37;;;;;;;9.43;7.35;;;;;;;16.06;45.34;91939.78;4932675;29;20052;-89
2023/01/19 03:42:08;;;;;;;11.60;8.95;;;;;;;16.02;45.17;91937.38;4930388;28;20042;-89
2023/01/19 03:44:36;;;;;;;10.57;7.57;;;;;;;16.04;44.94;91934.84;4951576;28;20043;-89
2023/01/19 03:47:01;;;;;;;10.73;7.60;;;;;;;16.04;45.30;91940.31;4941983;28;20039;-90
2023/01/19 03:49:39;;;;;;;13.18;8.52;;;;;;;16.05;45.41;91943.75;4933368;29;20050;-89
2023/01/19 03:52:04;;;;;;;11.02;8.02;;;;;;;16.01;45.37;91951.56;4955021;28;20043;-90
2023/01/19 03:54:31;;;;;;;12.52;8.50;;;;;;;16.00;45.45;91955.53;4955007;28;20041;-89
2023/01/19 03:56:57;;;;;;;11.18;7.85;;;;;;;16.04;45.13;91956.66;4967290;28;20046;-89
2023/01/19 03:59:22;;;;;;;15.18;10.65;;;;;;;16.05;45.60;91960.13;4971191;28;20089;-89
2023/01/19 04:01:47;;;;;;;24.17;15.45;;;;;;;16.05;45.43;91962.84;4954601;28;20047;-89
2023/01/19 04:04:14;;;;;;;10.38;7.55;;;;;;;16.01;45.47;91965.19;4960060;28;20038;-89
2023/01/19 04:06:41;;;;;;;12.85;9.00;;;;;;;16.02;45.45;91956.44;4953576;28;20038;-91
2023/01/19 04:09:07;;;;;;;10.23;7.65;;;;;;;16.01;44.95;91960.47;4954540;28;20031;-89
2023/01/19 04:11:32;;;;;;;12.30;9.38;;;;;;;16.03;45.29;91957.19;4970374;28;20042;-89
2023/01/19 04:14:04;;;;;;;10.02;7.80;;;;;;;16.03;45.28;91960.63;4970352;28;20042;-89
2023/01/19 04:16:29;;;;;;;10.48;8.45;;;;;;;16.01;45.59;91959.72;4953306;28;20435;-90
2023/01/19 04:18:55;;;;;;;12.85;9.93;;;;;;;16.03;45.55;91957.91;4969273;28;20035;-89
2023/01/19 04:21:20;;;;;;;18.20;12.43;;;;;;;16.06;45.94;91961.56;4986554;28;20049;-89
2023/01/19 04:23:46;;;;;;;11.70;8.27;;;;;;;16.01;45.36;91974.09;4986190;28;20475;-88
2023/01/19 04:26:12;;;;;;;11.25;8.35;;;;;;;15.97;45.26;91972.94;4954903;28;20053;-89
2023/01/19 04:28:37;;;;;;;10.02;7.45;;;;;;;15.97;45.26;91972.94;4984253;28;20042;-90
2023/01/19 04:31:04;;;;;;;9.68;7.18;;;;;;;16.00;45.14;91980.81;4953681;28;20129;-89
2023/01/19 04:33:30;;;;;;;13.07;7.97;;;;;;;16.02;45.77;91974.81;4972038;28;20061;-89
2023/01/19 04:35:56;;;;;;;14.38;9.20;;;;;;;15.98;45.49;91982.59;4971207;28;20042;-90
2023/01/19 04:38:22;;;;;;;11.93;8.45;;;;;;;16.01;45.59;91976.09;4966051;28;20034;-88
2023/01/19 04:40:48;;;;;;;12.90;9.20;;;;;;;16.03;45.36;91987.16;4953264;28;20472;-90
2023/01/19 04:43:14;;;;;;;10.88;7.93;;;;;;;16.00;45.33;91986.25;4954325;28;20043;-88
2023/01/19 04:45:39;;;;;;;10.20;7.40;;;;;;;16.03;45.05;91995.34;4954486;28;20041;-89
2023/01/19 04:48:05;;;;;;;10.20;7.00;;;;;;;16.02;45.38;91988.44;4954646;28;20042;-89
2023/01/19 04:50:30;;;;;;;11.50;7.63;;;;;;;16.01;44.93;91992.44;4972677;28;20123;-89
2023/01/19 04:52:57;;;;;;;8.93;6.97;;;;;;;15.99;45.34;91994.97;4984480;28;20045;-88
2023/01/19 04:55:24;;;;;;;12.13;8.02;;;;;;;15.97;45.41;91992.75;4977062;28;20050;-89
2023/01/19 04:57:50;;;;;;;8.52;7.13;;;;;;;15.99;45.35;92011.31;4978622;28;20042;-88
2023/01/19 05:00:16;;;;;;;9.38;7.30;;;;;;;15.96;45.06;92010.38;4953144;28;20057;-88
2023/01/19 05:02:44;;;;;;;10.93;7.40;;;;;;;16.01;45.16;92014.97;4954116;28;20042;-89
2023/01/19 05:05:09;;;;;;;10.85;7.53;;;;;;;16.02;45.33;92013.69;4971579;28;20594;-89
2023/01/19 05:07:34;;;;;;;8.43;7.13;;;;;;;15.98;45.18;92021.47;4960699;28;20046;-89
2023/01/19 05:10:00;;;;;;;10.57;7.70;;;;;;;15.99;45.25;92027.66;4971746;28;20026;-89
2023/01/19 05:12:26;;;;;;;10.13;7.03;;;;;;;16.00;45.20;92029.88;4955365;28;20038;-91
2023/01/19 05:14:58;;;;;;;10.07;7.65;;;;;;;15.98;45.05;92029.66;4986087;28;20069;-91
2023/01/19 05:17:23;;;;;;;12.10;7.93;;;;;;;15.95;45.08;92032.69;4949353;28;20140;-89
2023/01/19 05:19:48;;;;;;;10.10;7.63;;;;;;;15.98;44.97;92035.09;4972947;28;20037;-89
2023/01/19 05:22:14;;;;;;;13.88;9.98;;;;;;;16.06;45.53;92044.09;4985775;28;20050;-89
2023/01/19 05:24:46;;;;;;;14.85;8.48;;;;;;;16.11;45.57;92039.78;4970867;28;20046;-91
2023/01/19 05:27:13;;;;;;;15.32;9.85;;;;;;;16.18;45.42;92030.97;4954533;28;20101;-91
2023/01/19 05:29:39;;;;;;;27.13;8.95;;;;;;;16.20;45.45;92038.59;4953375;28;20609;-90
2023/01/19 05:32:06;;;;;;;12.20;7.88;;;;;;;16.31;45.40;92036.34;4975565;28;20081;-91
2023/01/19 05:34:32;;;;;;;8.90;6.43;;;;;;;16.29;45.47;92040.88;4943938;28;20077;-90
2023/01/19 05:36:57;;;;;;;11.50;7.88;;;;;;;16.33;45.12;92044.75;4971785;28;20038;-89
2023/01/19 05:39:25;;;;;;;19.58;7.00;;;;;;;16.34;44.75;92043.47;4955512;28;21073;-88
2023/01/19 05:41:51;;;;;;;14.73;7.28;;;;;;;16.38;44.75;92052.06;4972323;28;20799;-87
2023/01/19 05:44:16;;;;;;;86.10;11.50;;;;;;;16.36;44.90;92051.88;4992917;28;20056;-92
2023/01/19 05:46:51;;;;;;;13.60;6.63;;;;;;;16.37;44.69;92052.59;4976335;28;20050;-91
2023/01/19 05:49:16;;;;;;;14.65;6.43;;;;;;;16.35;44.77;92053.13;4959156;28;20050;-92
2023/01/19 05:51:45;;;;;;;30.05;20.25;;;;;;;16.37;45.77;92050.59;4954746;28;20045;-92
2023/01/19 05:54:12;;;;;;;30.00;17.45;;;;;;;16.30;45.00;92059.44;4944016;28;20075;-93
2023/01/19 05:56:38;;;;;;;61.00;21.98;;;;;;;16.32;44.39;92056.19;4941167;28;20082;-93
2023/01/19 05:59:03;;;;;;;88.88;33.40;;;;;;;16.31;45.14;92065.63;4939057;28;20532;-88
2023/01/19 06:01:29;;;;;;;129.10;42.92;;;;;;;16.33;44.99;92063.81;4943104;28;20042;-89
2023/01/19 06:03:55;;;;;;;100.70;44.80;;;;;;;16.39;44.61;92071.91;4945485;28;20041;-87
2023/01/19 06:06:20;;;;;;;118.63;63.00;;;;;;;16.27;44.49;92070.66;4958042;28;20046;-91
2023/01/19 06:08:46;;;;;;;169.77;83.50;;;;;;;16.31;44.74;92074.53;4986035;28;20402;-88
2023/01/19 06:11:11;;;;;;;92.38;45.90;;;;;;;16.26;44.15;92083.56;4973233;28;20035;-87
2023/01/19 06:13:39;;;;;;;79.53;35.00;;;;;;;16.05;40.97;92083.50;4964091;28;20038;-88
2023/01/19 06:16:13;;;;;;;99.05;31.35;;;;;;;15.98;40.36;92086.88;4972115;28;20041;-89
2023/01/19 06:18:39;;;;;;;68.82;28.33;;;;;;;15.92;40.11;92097.16;5003540;28;20093;-89
2023/01/19 06:21:05;;;;;;;82.32;33.15;;;;;;;15.95;40.64;92098.84;4976492;28;20042;-88
2023/01/19 06:23:31;;;;;;;102.55;44.17;;;;;;;15.99;41.56;92106.69;4973273;28;20075;-90
2023/01/19 06:25:56;;;;;;;126.82;51.13;;;;;;;16.09;43.52;92113.16;4958876;28;20062;-87
2023/01/19 06:28:22;;;;;;;126.53;54.75;;;;;;;16.13;43.28;92110.88;4960441;28;20162;-92
2023/01/19 06:30:49;;;;;;;121.28;50.00;;;;;;;16.14;43.92;92112.34;4935846;28;20043;-90
2023/01/19 06:33:16;;;;;;;119.80;50.63;;;;;;;16.08;42.71;92120.63;4956896;28;20042;-91
2023/01/19 06:35:45;;;;;;;134.52;53.05;;;;;;;16.01;42.21;92120.53;4956717;28;20107;-90
2023/01/19 06:38:12;;;;;;;135.55;55.45;;;;;;;16.02;41.93;92109.09;4978493;28;20084;-91
2023/01/19 06:40:38;;;;;;;171.60;79.57;;;;;;;16.08;42.55;92122.59;4981166;28;20105;-91
2023/01/19 06:43:05;;;;;;;197.65;92.85;;;;;;;16.10;42.85;92115.38;4948856;28;20106;-88
2023/01/19 06:45:31;;;;;;;197.32;83.20;;;;;;;16.08;43.28;92123.34;4971923;28;20049;-90
2023/01/19 06:47:58;;;;;;;150.27;70.80;;;;;;;16.07;42.25;92130.06;4957271;28;20050;-90
2023/01/19 06:50:24;;;;;;;160.43;68.65;;;;;;;15.98;41.43;92133.22;4986489;28;20157;-88
2023/01/19 06:52:50;;;;;;;224.90;105.07;;;;;;;16.04;42.28;92130.38;4977331;28;20041;-88
2023/01/19 06:55:15;;;;;;;214.35;87.95;;;;;;;16.10;43.04;92144.63;4966296;28;20046;-89
2023/01/19 06:57:41;;;;;;;168.68;81.03;;;;;;;16.09;43.11;92132.25;4970707;28;20401;-90
2023/01/19 07:00:07;;;;;;;175.32;81.45;;;;;;;16.00;41.91;92127.97;4975121;28;20038;-88
2023/01/19 07:02:33;;;;;;;183.90;87.38;;;;;;;16.07;42.66;92134.78;4959471;28;20053;-89
2023/01/19 07:05:00;;;;;;;203.25;92.03;;;;;;;16.18;44.29;92137.28;4969115;28;20041;-90
2023/01/19 07:07:28;;;;;;;181.60;93.05;;;;;;;16.25;43.71;92136.63;4977200;28;20053;-88
2023/01/19 07:09:55;;;;;;;158.73;84.85;;;;;;;16.27;43.40;92136.84;4972958;28;20042;-87
2023/01/19 07:12:21;;;;;;;168.88;87.22;;;;;;;16.33;43.91;92144.91;4965188;28;20043;-89
2023/01/19 07:14:48;;;;;;;161.52;92.07;;;;;;;16.36;43.19;92143.84;4969109;28;20038;-88
2023/01/19 07:17:14;;;;;;;148.80;84.88;;;;;;;16.39;43.71;92134.63;4969919;28;20046;-90
2023/01/19 07:19:39;;;;;;;153.27;81.68;;;;;;;16.47;43.13;92138.16;4968571;28;20035;-88
2023/01/19 07:22:05;;;;;;;151.88;79.50;;;;;;;16.51;44.47;92146.00;4953036;28;20038;-87
2023/01/19 07:24:32;;;;;;;123.38;72.40;;;;;;;16.36;42.92;92130.22;4967623;28;20055;-90
2023/01/19 07:26:58;;;;;;;118.20;71.18;;;;;;;16.33;42.56;92142.19;4946661;28;20042;-88
2023/01/19 07:29:24;;;;;;;333.23;92.72;;;;;;;16.36;43.36;92132.94;4953789;28;20046;-87
2023/01/19 07:31:49;;;;;;;137.90;79.07;;;;;;;16.29;42.60;92147.94;4970915;28;20232;-90
2023/01/19 07:34:14;;;;;;;142.57;82.20;;;;;;;16.29;42.80;92142.50;4974079;28;20120;-87
2023/01/19 07:36:41;;;;;;;181.00;98.93;;;;;;;16.33;42.99;92148.38;4995087;28;20053;-90
2023/01/19 07:39:06;;;;;;;183.50;96.93;;;;;;;16.32;42.96;92148.91;4972499;28;20050;-88
2023/01/19 07:41:32;;;;;;;339.83;116.70;;;;;;;16.30;43.21;92156.88;4989170;28;20426;-89
2023/01/19 07:43:57;;;;;;;221.85;100.57;;;;;;;16.31;42.81;92150.16;4973607;28;20050;-88
2023/01/19 07:46:22;;;;;;;232.82;114.38;;;;;;;16.31;43.12;92153.63;4972078;28;20061;-88
2023/01/19 07:48:50;;;;;;;231.48;112.88;;;;;;;16.32;42.74;92149.63;4976220;28;20045;-87
2023/01/19 07:51:17;;;;;;;223.63;113.57;;;;;;;16.33;42.78;92153.81;4977666;28;20047;-86
2023/01/19 07:53:44;;;;;;;205.30;111.93;;;;;;;16.31;42.73;92148.16;4975886;28;20039;-89
2023/01/19 07:56:10;;;;;;;220.00;109.57;;;;;;;16.29;43.27;92149.94;4989280;28;20085;-87
2023/01/19 07:58:37;;;;;;;213.02;105.10;;;;;;;16.28;43.14;92143.75;4978885;28;20137;-87
2023/01/19 08:01:07;;;;;;;217.23;109.32;;;;;;;16.36;44.85;92147.31;4977843;28;20043;-88
2023/01/19 08:03:34;;;;;;;228.75;106.40;;;;;;;16.30;44.55;92143.97;4977560;28;20046;-91
2023/01/19 08:06:01;;;;;;;220.13;99.88;;;;;;;16.34;43.66;92140.91;4975545;28;20174;-92
2023/01/19 08:08:28;;;;;;;186.98;90.80;;;;;;;16.24;41.95;92148.78;4965074;28;20055;-90
2023/01/19 08:10:53;;;;;;;165.60;83.32;;;;;;;16.19;41.85;92152.38;4998351;28;20362;-88
2023/01/19 08:13:19;;;;;;;165.93;83.22;;;;;;;16.18;41.89;92158.38;4961032;28;20509;-90
2023/01/19 08:15:47;;;;;;;176.85;83.43;;;;;;;16.17;42.05;92156.91;4978160;28;20490;-88
2023/01/19 08:18:14;;;;;;;165.32;79.10;;;;;;;16.20;42.42;92148.41;4981396;28;20043;-92
2023/01/19 08:20:40;;;;;;;146.00;82.03;;;;;;;16.28;44.40;92157.38;4978452;28;20118;-87
2023/01/19 08:23:06;;;;;;;153.85;81.03;;;;;;;16.30;42.61;92149.41;4982459;28;20031;-86
2023/01/19 08:25:43;;;;;;;150.85;75.38;;;;;;;16.27;43.16;92161.38;4981945;28;20049;-89
2023/01/19 08:28:10;;;;;;;173.57;77.40;;;;;;;16.28;43.25;92162.84;4954286;28;20126;-90
2023/01/19 08:30:35;;;;;;;197.48;77.85;;;;;;;16.26;43.16;92164.63;4972601;28;20039;-85
2023/01/19 08:33:06;;;;;;;155.43;74.90;;;;;;;16.29;43.16;92167.03;4976915;28;20042;-91
2023/01/19 08:35:36;;;;;;;185.57;79.43;;;;;;;16.22;42.05;92164.97;4969146;28;20592;-89
2023/01/19 08:38:04;;;;;;;222.55;76.78;;;;;;;16.17;41.96;92165.81;4976433;28;20095;-92
2023/01/19 08:40:32;;;;;;;214.95;60.83;;;;;;;16.13;41.85;92176.28;4984198;28;20053;-87
2023/01/19 08:43:05;;;;;;;213.43;68.63;;;;;;;16.17;42.45;92178.72;4994597;28;20050;-90
2023/01/19 08:45:31;;;;;;;208.07;70.53;;;;;;;16.14;40.61;92187.94;4971064;28;20097;-91
2023/01/19 08:47:59;;;;;;;180.77;77.20;;;;;;;16.27;43.77;92185.19;4975682;28;20042;-92
2023/01/19 08:50:33;;;;;;;175.88;74.85;;;;;;;16.18;41.87;92194.53;4942577;28;20035;-88
2023/01/19 08:53:01;;;;;;;157.40;68.78;;;;;;;16.18;41.99;92182.91;4979186;28;20570;-87
2023/01/19 08:55:27;;;;;;;177.15;69.38;;;;;;;16.22;42.60;92192.22;4976644;28;20054;-87
2023/01/19 08:57:53;;;;;;;186.70;68.25;;;;;;;16.21;42.23;92203.66;4942358;29;20047;-87
2023/01/19 09:00:19;;;;;;;145.98;62.65;;;;;;;16.25;42.25;92199.34;4968197;28;20062;-86
2023/01/19 09:02:45;;;;;;;141.10;59.38;;;;;;;16.26;43.37;92202.81;4979361;28;20433;-88
2023/01/19 09:05:10;;;;;;;136.93;62.45;;;;;;;16.25;42.62;92202.06;4972981;28;20042;-87
2023/01/19 09:07:37;;;;;;;128.38;58.35;;;;;;;16.22;42.90;92207.88;4970211;28;20031;-88
2023/01/19 09:10:04;;;;;;;123.15;60.53;;;;;;;16.25;44.28;92209.50;4972049;28;20046;-88
2023/01/19 09:12:30;;;;;;;131.30;55.65;;;;;;;16.23;42.58;92214.78;4970746;28;20129;-85
2023/01/19 09:14:55;;;;;;;113.32;52.92;;;;;;;16.23;43.17;92220.97;4972419;28;20069;-86
2023/01/19 09:17:20;;;;;;;124.85;52.58;;;;;;;16.30;43.04;92225.78;4977793;28;20417;-85
2023/01/19 09:19:46;;;;;;;125.93;50.05;;;;;;;16.26;42.56;92230.06;4978403;28;20413;-85
2023/01/19 09:22:11;;;;;;;106.28;51.70;;;;;;;16.30;42.39;92233.94;4977403;28;20042;-89
2023/01/19 09:24:37;;;;;;;141.82;62.90;;;;;;;16.16;40.76;92237.22;4994767;28;20042;-86
2023/01/19 09:27:02;;;;;;;143.77;67.40;;;;;;;16.22;42.89;92238.59;4982406;28;20125;-86
2023/01/19 09:29:31;;;;;;;129.25;55.38;;;;;;;16.08;39.05;92239.81;4986108;28;20038;-85
2023/01/19 09:31:56;;;;;;;128.50;51.28;;;;;;;16.09;38.91;92247.47;4976928;28;20074;-87
2023/01/19 09:34:31;;;;;;;148.18;59.28;;;;;;;16.10;40.21;92240.78;4986132;28;20035;-86
2023/01/19 09:36:56;;;;;;;174.38;71.43;;;;;;;16.21;41.59;92242.56;4983202;28;20050;-86
2023/01/19 09:39:23;;;;;;;171.60;72.03;;;;;;;16.15;41.93;92250.13;4982146;28;20050;-87
2023/01/19 09:41:55;;;;;;;166.25;72.40;;;;;;;16.18;42.45;92248.34;4983593;28;20479;-85
2023/01/19 09:44:27;;;;;;;179.23;71.55;;;;;;;16.17;42.01;92246.88;4971310;28;20191;-87
2023/01/19 09:46:53;;;;;;;165.80;68.90;;;;;;;16.13;41.76;92243.72;4972903;28;20066;-88
2023/01/19 09:49:27;;;;;;;196.02;75.90;;;;;;;16.18;42.67;92248.34;4972953;28;20053;-89
2023/01/19 09:51:52;;;;;;;199.30;66.35;;;;;;;16.19;41.39;92252.53;4970995;28;20513;-89
2023/01/19 09:54:34;;;;;;;182.18;73.40;;;;;;;16.19;43.17;92250.53;4969258;28;20062;-87
2023/01/19 09:57:00;;;;;;;177.40;70.63;;;;;;;16.18;42.07;92254.53;4972407;28;20039;-90
2023/01/19 09:59:28;;;;;;;182.60;73.97;;;;;;;16.21;42.33;92248.03;4972913;28;20046;-85
2023/01/19 10:02:18;;;;;;;176.88;73.68;;;;;;;16.20;41.85;92248.53;4975871;28;20050;-89
2023/01/19 10:05:02;;;;;;;167.55;69.97;;;;;;;16.23;41.46;92255.69;4972850;28;20035;-86
2023/01/19 10:07:33;;;;;;;144.88;64.28;;;;;;;16.26;41.56;92243.69;4968251;28;20529;-86
2023/01/19 10:10:12;;;;;;;158.02;65.70;;;;;;;16.26;42.08;92243.69;4952377;28;20053;-86
2023/01/19 10:12:49;;;;;;;126.30;64.65;;;;;;;16.21;41.85;92241.84;4958874;28;20521;-86
2023/01/19 10:15:36;;;;;;;127.15;58.70;;;;;;;16.22;41.90;92244.03;4968693;28;20047;-85
2023/01/19 10:18:33;;;;;;;147.05;61.65;;;;;;;16.20;41.99;92237.63;4968285;28;20041;-86
2023/01/19 10:21:07;;;;;;;149.90;67.57;;;;;;;16.24;41.94;92244.22;4956313;28;20089;-86
2023/01/19 10:23:48;;;;;;;156.90;71.95;;;;;;;16.27;42.04;92240.44;4958193;28;20067;-87
2023/01/19 10:26:23;;;;;;;137.68;65.15;;;;;;;16.26;42.01;92240.97;4958999;28;21022;-87
2023/01/19 10:28:52;;;;;;;161.77;69.32;;;;;;;16.29;42.01;92242.66;4954592;28;20042;-87
2023/01/19 10:31:18;;;;;;;173.10;66.28;;;;;;;16.31;41.93;92246.34;4964096;28;20057;-88
2023/01/19 10:33:44;;;;;;;156.60;71.45;;;;;;;16.30;41.91;92244.88;4965930;28;20043;-88
2023/01/19 10:36:17;;;;;;;197.65;85.18;;;;;;;16.31;41.83;92243.59;4986090;28;20065;-90
2023/01/19 10:38:43;;;;;;;152.55;71.65;;;;;;;16.33;42.16;92246.53;4970346;28;20043;-86
2023/01/19 10:41:16;;;;;;;153.70;62.05;;;;;;;16.18;39.21;92246.34;4967176;28;20073;-85
2023/01/19 10:43:43;;;;;;;171.57;59.50;;;;;;;16.02;38.99;92244.66;4969214;28;20081;-86
2023/01/19 10:46:37;;;;;;;235.40;67.32;;;;;;;16.11;38.65;92238.78;4950081;28;20050;-87
2023/01/19 10:49:03;;;;;;;225.23;71.80;;;;;;;16.02;38.86;92241.94;4970561;28;20070;-88
2023/01/19 10:51:29;;;;;;;211.65;76.18;;;;;;;16.11;40.52;92236.06;4966748;28;20047;-87
2023/01/19 10:53:59;;;;;;;198.68;78.15;;;;;;;16.15;40.53;92238.47;4968344;28;20026;-87
2023/01/19 10:56:33;;;;;;;198.40;76.72;;;;;;;16.19;40.92;92242.34;4964386;28;20050;-90
2023/01/19 10:58:59;;;;;;;169.18;72.50;;;;;;;16.17;41.01;92242.16;4963465;28;20041;-88
2023/01/19 11:01:26;;;;;;;192.20;82.30;;;;;;;16.26;41.46;92230.06;4982775;28;20187;-86
2023/01/19 11:03:52;;;;;;;178.65;78.53;;;;;;;16.24;41.47;92238.06;4967946;28;20065;-87
2023/01/19 11:06:25;;;;;;;174.05;77.78;;;;;;;16.25;40.94;92247.69;4950396;28;20051;-87
2023/01/19 11:08:51;;;;;;;173.50;79.28;;;;;;;16.23;41.29;92245.50;4967724;28;20042;-87
2023/01/19 11:11:18;;;;;;;175.30;77.75;;;;;;;16.25;41.25;92248.41;4954333;28;20035;-85
2023/01/19 11:13:43;;;;;;;159.20;73.85;;;;;;;16.26;41.01;92246.44;4967537;28;20047;-86
2023/01/19 11:16:26;;;;;;;159.07;76.65;;;;;;;16.34;41.73;92244.56;4966212;28;20640;-85
2023/01/19 11:18:52;;;;;;;166.38;69.80;;;;;;;16.29;41.28;92239.94;4965081;28;20031;-85
2023/01/19 11:21:20;;;;;;;516.17;334.60;;;;;;;16.31;41.27;92245.59;4969925;28;20046;-88
2023/01/19 11:23:53;;;;;;;172.57;89.82;;;;;;;16.29;41.26;92246.13;4967967;28;20114;-87
2023/01/19 11:26:48;;;;;;;180.98;104.93;;;;;;;16.33;41.60;92234.91;4965986;28;20046;-86
2023/01/19 11:29:19;;;;;;;143.07;73.45;;;;;;;16.29;41.35;92239.94;4967960;28;20063;-87